sensor_id;sensor_type;location;lat;lon;timestamp;temperature;humidity
3001;DHT22;1510;51.072;6.678;2022-08-14T00:01:58;19.90;5.80
3001;DHT22;1510;51.072;6.678;2022-08-14T00:04:25;19.90;6.00
3001;DHT22;1510;51.072;6.678;2022-08-14T00:06:52;19.90;6.40
3001;DHT22;1510;51.072;6.678;2022-08-14T00:09:18;19.70;7.30
3001;DHT22;1510;51.072;6.678;2022-08-14T00:11:45;19.70;8.00
3001;DHT22;1510;51.072;6.678;2022-08-14T00:14:13;19.80;8.00
3001;DHT22;1510;51.072;6.678;2022-08-14T00:16:40;19.80;8.20
3001;DHT22;1510;51.072;6.678;2022-08-14T00:19:07;20.00;7.80
3001;DHT22;1510;51.072;6.678;2022-08-14T00:21:34;20.10;8.10
3001;DHT22;1510;51.072;6.678;2022-08-14T00:24:02;20.20;7.10
3001;DHT22;1510;51.072;6.678;2022-08-14T00:26:29;20.30;6.70
3001;DHT22;1510;51.072;6.678;2022-08-14T00:28:56;20.40;6.90
3001;DHT22;1510;51.072;6.678;2022-08-14T00:31:24;20.50;6.90
3001;DHT22;1510;51.072;6.678;2022-08-14T00:33:52;20.50;7.20
3001;DHT22;1510;51.072;6.678;2022-08-14T00:36:20;20.40;7.30
3001;DHT22;1510;51.072;6.678;2022-08-14T00:38:47;20.40;7.50
3001;DHT22;1510;51.072;6.678;2022-08-14T00:41:14;20.30;7.60
3001;DHT22;1510;51.072;6.678;2022-08-14T00:43:41;20.10;8.50
3001;DHT22;1510;51.072;6.678;2022-08-14T00:46:11;19.90;9.40
3001;DHT22;1510;51.072;6.678;2022-08-14T00:48:39;19.70;9.90
3001;DHT22;1510;51.072;6.678;2022-08-14T00:51:08;19.40;11.10
3001;DHT22;1510;51.072;6.678;2022-08-14T00:53:36;19.10;11.60
3001;DHT22;1510;51.072;6.678;2022-08-14T00:56:04;18.90;12.30
3001;DHT22;1510;51.072;6.678;2022-08-14T00:58:32;18.90;12.80
3001;DHT22;1510;51.072;6.678;2022-08-14T01:01:01;18.70;13.60
3001;DHT22;1510;51.072;6.678;2022-08-14T01:03:28;18.70;14.20
3001;DHT22;1510;51.072;6.678;2022-08-14T01:05:58;18.50;14.50
3001;DHT22;1510;51.072;6.678;2022-08-14T01:08:26;18.30;15.70
3001;DHT22;1510;51.072;6.678;2022-08-14T01:10:54;18.20;15.60
3001;DHT22;1510;51.072;6.678;2022-08-14T01:13:23;18.10;16.10
3001;DHT22;1510;51.072;6.678;2022-08-14T01:15:53;18.10;17.20
3001;DHT22;1510;51.072;6.678;2022-08-14T01:18:21;18.00;17.50
3001;DHT22;1510;51.072;6.678;2022-08-14T01:21:09;17.80;18.80
3001;DHT22;1510;51.072;6.678;2022-08-14T01:23:44;17.80;19.20
3001;DHT22;1510;51.072;6.678;2022-08-14T01:26:11;17.70;20.20
3001;DHT22;1510;51.072;6.678;2022-08-14T01:28:39;17.60;20.10
3001;DHT22;1510;51.072;6.678;2022-08-14T01:31:10;17.60;20.80
3001;DHT22;1510;51.072;6.678;2022-08-14T01:33:39;17.50;21.20
3001;DHT22;1510;51.072;6.678;2022-08-14T01:36:10;17.40;21.60
3001;DHT22;1510;51.072;6.678;2022-08-14T01:38:38;17.30;22.40
3001;DHT22;1510;51.072;6.678;2022-08-14T01:41:08;17.30;23.50
3001;DHT22;1510;51.072;6.678;2022-08-14T01:43:43;17.20;22.90
3001;DHT22;1510;51.072;6.678;2022-08-14T01:46:10;17.10;23.40
3001;DHT22;1510;51.072;6.678;2022-08-14T01:48:38;17.00;24.90
3001;DHT22;1510;51.072;6.678;2022-08-14T01:51:09;16.90;24.80
3001;DHT22;1510;51.072;6.678;2022-08-14T01:53:36;16.90;24.80
3001;DHT22;1510;51.072;6.678;2022-08-14T01:56:05;16.80;25.20
3001;DHT22;1510;51.072;6.678;2022-08-14T01:58:33;16.70;26.40
3001;DHT22;1510;51.072;6.678;2022-08-14T02:01:00;16.70;26.80
3001;DHT22;1510;51.072;6.678;2022-08-14T02:03:31;16.60;27.30
3001;DHT22;1510;51.072;6.678;2022-08-14T02:06:00;16.50;28.20
3001;DHT22;1510;51.072;6.678;2022-08-14T02:08:28;16.50;28.20
3001;DHT22;1510;51.072;6.678;2022-08-14T02:10:56;16.50;29.20
3001;DHT22;1510;51.072;6.678;2022-08-14T02:13:39;16.40;29.80
3001;DHT22;1510;51.072;6.678;2022-08-14T02:16:08;16.40;30.90
3001;DHT22;1510;51.072;6.678;2022-08-14T02:18:35;16.40;31.90
3001;DHT22;1510;51.072;6.678;2022-08-14T02:21:02;16.30;31.80
3001;DHT22;1510;51.072;6.678;2022-08-14T02:23:29;16.30;31.90
3001;DHT22;1510;51.072;6.678;2022-08-14T02:25:56;16.30;32.70
3001;DHT22;1510;51.072;6.678;2022-08-14T02:28:24;16.20;32.70
3001;DHT22;1510;51.072;6.678;2022-08-14T02:30:52;16.20;33.10
3001;DHT22;1510;51.072;6.678;2022-08-14T02:33:19;16.20;33.00
3001;DHT22;1510;51.072;6.678;2022-08-14T02:35:46;16.20;33.00
3001;DHT22;1510;51.072;6.678;2022-08-14T02:38:13;16.20;32.90
3001;DHT22;1510;51.072;6.678;2022-08-14T02:40:40;16.30;34.80
3001;DHT22;1510;51.072;6.678;2022-08-14T02:43:07;16.50;35.50
3001;DHT22;1510;51.072;6.678;2022-08-14T02:45:33;16.70;34.60
3001;DHT22;1510;51.072;6.678;2022-08-14T02:48:03;17.00;34.90
3001;DHT22;1510;51.072;6.678;2022-08-14T02:50:32;17.10;33.10
3001;DHT22;1510;51.072;6.678;2022-08-14T02:53:01;17.20;33.40
3001;DHT22;1510;51.072;6.678;2022-08-14T02:55:28;17.20;32.90
3001;DHT22;1510;51.072;6.678;2022-08-14T02:57:57;17.20;33.30
3001;DHT22;1510;51.072;6.678;2022-08-14T03:00:24;17.10;33.90
3001;DHT22;1510;51.072;6.678;2022-08-14T03:02:51;17.00;34.60
3001;DHT22;1510;51.072;6.678;2022-08-14T03:05:19;17.10;37.20
3001;DHT22;1510;51.072;6.678;2022-08-14T03:07:48;17.50;35.80
3001;DHT22;1510;51.072;6.678;2022-08-14T03:10:14;17.70;34.70
3001;DHT22;1510;51.072;6.678;2022-08-14T03:12:41;17.70;33.10
3001;DHT22;1510;51.072;6.678;2022-08-14T03:15:08;17.90;33.30
3001;DHT22;1510;51.072;6.678;2022-08-14T03:17:38;17.80;33.10
3001;DHT22;1510;51.072;6.678;2022-08-14T03:20:07;17.70;33.10
3001;DHT22;1510;51.072;6.678;2022-08-14T03:22:36;17.60;33.10
3001;DHT22;1510;51.072;6.678;2022-08-14T03:25:05;17.50;32.90
3001;DHT22;1510;51.072;6.678;2022-08-14T03:27:32;17.50;34.00
3001;DHT22;1510;51.072;6.678;2022-08-14T03:29:58;17.40;35.00
3001;DHT22;1510;51.072;6.678;2022-08-14T03:32:26;17.30;35.70
3001;DHT22;1510;51.072;6.678;2022-08-14T03:34:55;17.20;36.50
3001;DHT22;1510;51.072;6.678;2022-08-14T03:37:22;17.20;36.50
3001;DHT22;1510;51.072;6.678;2022-08-14T03:39:52;17.10;36.80
3001;DHT22;1510;51.072;6.678;2022-08-14T03:42:19;17.20;36.90
3001;DHT22;1510;51.072;6.678;2022-08-14T03:44:49;17.20;36.70
3001;DHT22;1510;51.072;6.678;2022-08-14T03:47:16;17.20;37.20
3001;DHT22;1510;51.072;6.678;2022-08-14T03:49:43;17.20;36.50
3001;DHT22;1510;51.072;6.678;2022-08-14T03:52:11;17.10;37.10
3001;DHT22;1510;51.072;6.678;2022-08-14T03:54:38;17.00;36.80
3001;DHT22;1510;51.072;6.678;2022-08-14T03:57:07;16.80;33.90
3001;DHT22;1510;51.072;6.678;2022-08-14T03:59:35;16.60;35.10
3001;DHT22;1510;51.072;6.678;2022-08-14T04:02:01;16.50;39.30
3001;DHT22;1510;51.072;6.678;2022-08-14T04:04:28;16.50;41.10
3001;DHT22;1510;51.072;6.678;2022-08-14T04:06:55;16.60;41.20
3001;DHT22;1510;51.072;6.678;2022-08-14T04:09:23;16.70;41.30
3001;DHT22;1510;51.072;6.678;2022-08-14T04:11:50;16.70;41.30
3001;DHT22;1510;51.072;6.678;2022-08-14T04:14:18;16.80;41.40
3001;DHT22;1510;51.072;6.678;2022-08-14T04:16:45;16.80;40.70
3001;DHT22;1510;51.072;6.678;2022-08-14T04:19:12;16.70;40.40
3001;DHT22;1510;51.072;6.678;2022-08-14T04:21:44;16.70;40.20
3001;DHT22;1510;51.072;6.678;2022-08-14T04:24:11;16.60;41.20
3001;DHT22;1510;51.072;6.678;2022-08-14T04:26:39;16.60;41.70
3001;DHT22;1510;51.072;6.678;2022-08-14T04:29:06;16.60;42.80
3001;DHT22;1510;51.072;6.678;2022-08-14T04:31:35;16.60;41.90
3001;DHT22;1510;51.072;6.678;2022-08-14T04:34:02;16.50;42.20
3001;DHT22;1510;51.072;6.678;2022-08-14T04:36:29;16.50;44.00
3001;DHT22;1510;51.072;6.678;2022-08-14T04:38:56;16.30;44.00
3001;DHT22;1510;51.072;6.678;2022-08-14T04:41:40;16.40;45.10
3001;DHT22;1510;51.072;6.678;2022-08-14T04:44:24;16.40;44.60
3001;DHT22;1510;51.072;6.678;2022-08-14T04:46:52;16.30;45.10
3001;DHT22;1510;51.072;6.678;2022-08-14T04:49:37;16.30;44.50
3001;DHT22;1510;51.072;6.678;2022-08-14T04:52:03;16.20;44.80
3001;DHT22;1510;51.072;6.678;2022-08-14T04:54:30;16.20;44.00
3001;DHT22;1510;51.072;6.678;2022-08-14T04:56:57;16.10;45.80
3001;DHT22;1510;51.072;6.678;2022-08-14T04:59:24;16.10;45.50
3001;DHT22;1510;51.072;6.678;2022-08-14T05:01:52;16.10;47.30
3001;DHT22;1510;51.072;6.678;2022-08-14T05:04:20;16.20;48.40
3001;DHT22;1510;51.072;6.678;2022-08-14T05:06:48;16.30;48.60
3001;DHT22;1510;51.072;6.678;2022-08-14T05:09:16;16.20;47.50
3001;DHT22;1510;51.072;6.678;2022-08-14T05:11:42;16.30;48.10
3001;DHT22;1510;51.072;6.678;2022-08-14T05:14:09;16.40;49.80
3001;DHT22;1510;51.072;6.678;2022-08-14T05:16:36;16.40;49.50
3001;DHT22;1510;51.072;6.678;2022-08-14T05:19:04;16.60;50.10
3001;DHT22;1510;51.072;6.678;2022-08-14T05:21:33;16.90;48.70
3001;DHT22;1510;51.072;6.678;2022-08-14T05:24:01;17.20;46.70
3001;DHT22;1510;51.072;6.678;2022-08-14T05:26:28;17.30;46.40
3001;DHT22;1510;51.072;6.678;2022-08-14T05:28:55;17.50;45.90
3001;DHT22;1510;51.072;6.678;2022-08-14T05:31:21;17.70;45.30
3001;DHT22;1510;51.072;6.678;2022-08-14T05:33:48;18.20;42.70
3001;DHT22;1510;51.072;6.678;2022-08-14T05:36:17;18.70;41.10
3001;DHT22;1510;51.072;6.678;2022-08-14T05:38:45;19.20;38.90
3001;DHT22;1510;51.072;6.678;2022-08-14T05:41:13;19.50;37.50
3001;DHT22;1510;51.072;6.678;2022-08-14T05:43:44;20.00;35.30
3001;DHT22;1510;51.072;6.678;2022-08-14T05:46:13;20.30;33.30
3001;DHT22;1510;51.072;6.678;2022-08-14T05:48:40;20.80;30.30
3001;DHT22;1510;51.072;6.678;2022-08-14T05:51:06;21.10;28.00
3001;DHT22;1510;51.072;6.678;2022-08-14T05:53:34;21.50;27.70
3001;DHT22;1510;51.072;6.678;2022-08-14T05:56:01;22.10;26.10
3001;DHT22;1510;51.072;6.678;2022-08-14T05:58:28;22.40;25.70
3001;DHT22;1510;51.072;6.678;2022-08-14T06:00:55;22.60;25.30
3001;DHT22;1510;51.072;6.678;2022-08-14T06:03:22;22.80;23.50
3001;DHT22;1510;51.072;6.678;2022-08-14T06:05:51;23.10;21.90
3001;DHT22;1510;51.072;6.678;2022-08-14T06:08:20;23.40;22.00
3001;DHT22;1510;51.072;6.678;2022-08-14T06:10:48;23.60;20.60
3001;DHT22;1510;51.072;6.678;2022-08-14T06:13:15;23.70;20.90
3001;DHT22;1510;51.072;6.678;2022-08-14T06:15:43;23.80;19.80
3001;DHT22;1510;51.072;6.678;2022-08-14T06:18:10;23.80;19.40
3001;DHT22;1510;51.072;6.678;2022-08-14T06:20:37;24.00;19.50
3001;DHT22;1510;51.072;6.678;2022-08-14T06:23:04;24.30;18.60
3001;DHT22;1510;51.072;6.678;2022-08-14T06:25:31;24.40;18.10
3001;DHT22;1510;51.072;6.678;2022-08-14T06:27:59;24.30;18.70
3001;DHT22;1510;51.072;6.678;2022-08-14T06:30:27;24.40;18.70
3001;DHT22;1510;51.072;6.678;2022-08-14T06:32:54;24.10;18.70
3001;DHT22;1510;51.072;6.678;2022-08-14T06:35:21;24.10;19.20
3001;DHT22;1510;51.072;6.678;2022-08-14T06:37:49;24.00;19.00
3001;DHT22;1510;51.072;6.678;2022-08-14T06:40:20;23.90;19.40
3001;DHT22;1510;51.072;6.678;2022-08-14T06:42:47;23.80;19.50
3001;DHT22;1510;51.072;6.678;2022-08-14T06:45:16;23.70;20.60
3001;DHT22;1510;51.072;6.678;2022-08-14T06:47:45;23.60;21.60
3001;DHT22;1510;51.072;6.678;2022-08-14T06:50:14;23.50;20.60
3001;DHT22;1510;51.072;6.678;2022-08-14T06:52:41;23.50;21.60
3001;DHT22;1510;51.072;6.678;2022-08-14T06:55:10;23.60;20.50
3001;DHT22;1510;51.072;6.678;2022-08-14T06:57:38;23.50;20.90
3001;DHT22;1510;51.072;6.678;2022-08-14T07:00:08;23.50;20.90
3001;DHT22;1510;51.072;6.678;2022-08-14T07:02:36;23.60;21.20
3001;DHT22;1510;51.072;6.678;2022-08-14T07:05:21;23.70;20.70
3001;DHT22;1510;51.072;6.678;2022-08-14T07:08:10;23.80;20.70
3001;DHT22;1510;51.072;6.678;2022-08-14T07:10:36;23.90;20.10
3001;DHT22;1510;51.072;6.678;2022-08-14T07:13:03;24.00;20.10
3001;DHT22;1510;51.072;6.678;2022-08-14T07:15:30;24.10;19.20
3001;DHT22;1510;51.072;6.678;2022-08-14T07:17:59;24.20;18.90
3001;DHT22;1510;51.072;6.678;2022-08-14T07:20:25;24.40;18.40
3001;DHT22;1510;51.072;6.678;2022-08-14T07:22:53;24.50;18.00
3001;DHT22;1510;51.072;6.678;2022-08-14T07:25:22;24.70;17.20
3001;DHT22;1510;51.072;6.678;2022-08-14T07:27:49;24.70;16.60
3001;DHT22;1510;51.072;6.678;2022-08-14T07:30:16;24.80;16.20
3001;DHT22;1510;51.072;6.678;2022-08-14T07:32:43;25.00;15.80
3001;DHT22;1510;51.072;6.678;2022-08-14T07:35:11;25.20;15.90
3001;DHT22;1510;51.072;6.678;2022-08-14T07:37:38;25.10;15.30
3001;DHT22;1510;51.072;6.678;2022-08-14T07:40:06;25.30;15.10
3001;DHT22;1510;51.072;6.678;2022-08-14T07:42:33;25.50;14.90
3001;DHT22;1510;51.072;6.678;2022-08-14T07:45:00;25.50;14.40
3001;DHT22;1510;51.072;6.678;2022-08-14T07:47:26;25.50;14.50
3001;DHT22;1510;51.072;6.678;2022-08-14T07:50:00;25.70;14.60
3001;DHT22;1510;51.072;6.678;2022-08-14T07:52:29;25.80;13.60
3001;DHT22;1510;51.072;6.678;2022-08-14T07:54:56;25.90;12.90
3001;DHT22;1510;51.072;6.678;2022-08-14T07:57:23;26.10;12.60
3001;DHT22;1510;51.072;6.678;2022-08-14T07:59:51;26.30;11.90
3001;DHT22;1510;51.072;6.678;2022-08-14T08:02:18;26.30;11.20
3001;DHT22;1510;51.072;6.678;2022-08-14T08:04:47;26.50;10.20
3001;DHT22;1510;51.072;6.678;2022-08-14T08:07:14;26.80;9.10
3001;DHT22;1510;51.072;6.678;2022-08-14T08:09:48;27.30;8.40
3001;DHT22;1510;51.072;6.678;2022-08-14T08:12:16;27.60;6.90
3001;DHT22;1510;51.072;6.678;2022-08-14T08:14:45;28.20;5.40
3001;DHT22;1510;51.072;6.678;2022-08-14T08:17:13;28.50;3.60
3001;DHT22;1510;51.072;6.678;2022-08-14T08:19:40;28.50;3.20
3001;DHT22;1510;51.072;6.678;2022-08-14T08:22:06;28.90;2.40
3001;DHT22;1510;51.072;6.678;2022-08-14T08:24:33;29.20;2.60
3001;DHT22;1510;51.072;6.678;2022-08-14T08:27:03;29.10;2.30
3001;DHT22;1510;51.072;6.678;2022-08-14T08:29:39;28.90;2.40
3001;DHT22;1510;51.072;6.678;2022-08-14T08:32:06;29.10;1.00
3001;DHT22;1510;51.072;6.678;2022-08-14T08:34:42;29.20;1.00
3001;DHT22;1510;51.072;6.678;2022-08-14T08:37:10;29.10;1.00
3001;DHT22;1510;51.072;6.678;2022-08-14T08:39:42;29.40;1.10
3001;DHT22;1510;51.072;6.678;2022-08-14T08:42:10;29.80;1.00
3001;DHT22;1510;51.072;6.678;2022-08-14T08:44:37;30.30;1.00
3001;DHT22;1510;51.072;6.678;2022-08-14T08:47:04;30.10;1.00
3001;DHT22;1510;51.072;6.678;2022-08-14T08:49:39;30.50;1.00
3001;DHT22;1510;51.072;6.678;2022-08-14T08:52:07;30.90;1.00
3001;DHT22;1510;51.072;6.678;2022-08-14T08:54:34;31.20;1.00
3001;DHT22;1510;51.072;6.678;2022-08-14T08:57:00;31.10;1.00
3001;DHT22;1510;51.072;6.678;2022-08-14T08:59:30;31.00;1.00
3001;DHT22;1510;51.072;6.678;2022-08-14T09:02:00;31.20;1.00
3001;DHT22;1510;51.072;6.678;2022-08-14T09:04:29;31.30;1.00
3001;DHT22;1510;51.072;6.678;2022-08-14T09:06:56;31.40;1.00
3001;DHT22;1510;51.072;6.678;2022-08-14T09:09:25;31.80;1.00
3001;DHT22;1510;51.072;6.678;2022-08-14T09:11:52;31.90;1.00
3001;DHT22;1510;51.072;6.678;2022-08-14T09:14:20;32.30;1.00
3001;DHT22;1510;51.072;6.678;2022-08-14T09:16:48;32.40;1.00
3001;DHT22;1510;51.072;6.678;2022-08-14T09:19:15;32.80;1.00
3001;DHT22;1510;51.072;6.678;2022-08-14T09:21:42;32.90;1.00
3001;DHT22;1510;51.072;6.678;2022-08-14T09:24:10;32.90;1.00
3001;DHT22;1510;51.072;6.678;2022-08-14T09:26:38;32.80;1.00
3001;DHT22;1510;51.072;6.678;2022-08-14T09:29:06;32.40;1.00
3001;DHT22;1510;51.072;6.678;2022-08-14T09:31:36;32.30;1.00
3001;DHT22;1510;51.072;6.678;2022-08-14T09:34:13;32.20;1.00
3001;DHT22;1510;51.072;6.678;2022-08-14T09:39:41;33.60;1.00
3001;DHT22;1510;51.072;6.678;2022-08-14T09:42:25;33.90;1.00
3001;DHT22;1510;51.072;6.678;2022-08-14T09:45:03;34.50;1.00
3001;DHT22;1510;51.072;6.678;2022-08-14T09:47:43;34.60;1.00
3001;DHT22;1510;51.072;6.678;2022-08-14T09:50:23;35.20;1.00
3001;DHT22;1510;51.072;6.678;2022-08-14T09:52:54;34.90;1.00
3001;DHT22;1510;51.072;6.678;2022-08-14T09:55:23;34.20;1.00
3001;DHT22;1510;51.072;6.678;2022-08-14T09:57:50;33.90;1.00
3001;DHT22;1510;51.072;6.678;2022-08-14T10:00:21;33.90;1.00
3001;DHT22;1510;51.072;6.678;2022-08-14T10:02:58;33.40;1.00
3001;DHT22;1510;51.072;6.678;2022-08-14T10:05:30;34.00;1.00
3001;DHT22;1510;51.072;6.678;2022-08-14T10:07:59;34.60;1.00
3001;DHT22;1510;51.072;6.678;2022-08-14T10:10:28;34.60;1.00
3001;DHT22;1510;51.072;6.678;2022-08-14T10:12:57;34.90;1.00
3001;DHT22;1510;51.072;6.678;2022-08-14T10:15:26;35.40;1.00
3001;DHT22;1510;51.072;6.678;2022-08-14T10:18:05;35.40;1.00
3001;DHT22;1510;51.072;6.678;2022-08-14T10:20:36;35.60;1.00
3001;DHT22;1510;51.072;6.678;2022-08-14T10:23:13;35.30;1.00
3001;DHT22;1510;51.072;6.678;2022-08-14T10:25:43;35.40;1.00
3001;DHT22;1510;51.072;6.678;2022-08-14T10:28:11;34.90;1.00
3001;DHT22;1510;51.072;6.678;2022-08-14T10:30:47;34.90;1.00
3001;DHT22;1510;51.072;6.678;2022-08-14T10:33:27;34.60;1.00
3001;DHT22;1510;51.072;6.678;2022-08-14T10:35:57;35.50;1.00
3001;DHT22;1510;51.072;6.678;2022-08-14T10:38:26;35.70;1.00
3001;DHT22;1510;51.072;6.678;2022-08-14T10:40:54;36.20;1.00
3001;DHT22;1510;51.072;6.678;2022-08-14T10:43:23;36.60;1.00
3001;DHT22;1510;51.072;6.678;2022-08-14T10:45:55;36.40;1.00
3001;DHT22;1510;51.072;6.678;2022-08-14T10:48:23;35.80;1.00
3001;DHT22;1510;51.072;6.678;2022-08-14T10:50:50;35.60;1.00
3001;DHT22;1510;51.072;6.678;2022-08-14T10:53:33;35.50;1.00
3001;DHT22;1510;51.072;6.678;2022-08-14T10:56:07;35.50;1.00
3001;DHT22;1510;51.072;6.678;2022-08-14T10:58:34;35.60;1.00
3001;DHT22;1510;51.072;6.678;2022-08-14T11:01:01;35.30;1.00
3001;DHT22;1510;51.072;6.678;2022-08-14T11:03:39;35.80;1.00
3001;DHT22;1510;51.072;6.678;2022-08-14T11:06:15;36.80;1.00
3001;DHT22;1510;51.072;6.678;2022-08-14T11:08:48;37.10;1.00
3001;DHT22;1510;51.072;6.678;2022-08-14T11:11:17;37.60;1.00
3001;DHT22;1510;51.072;6.678;2022-08-14T11:13:45;37.20;1.00
3001;DHT22;1510;51.072;6.678;2022-08-14T11:16:13;37.30;1.00
3001;DHT22;1510;51.072;6.678;2022-08-14T11:18:44;38.10;1.00
3001;DHT22;1510;51.072;6.678;2022-08-14T11:21:14;38.30;1.00
3001;DHT22;1510;51.072;6.678;2022-08-14T11:23:44;38.70;1.00
3001;DHT22;1510;51.072;6.678;2022-08-14T11:26:14;39.00;1.00
3001;DHT22;1510;51.072;6.678;2022-08-14T11:28:46;37.70;1.00
3001;DHT22;1510;51.072;6.678;2022-08-14T11:31:14;38.00;1.00
3001;DHT22;1510;51.072;6.678;2022-08-14T11:33:41;38.40;1.00
3001;DHT22;1510;51.072;6.678;2022-08-14T11:36:09;37.40;1.00
3001;DHT22;1510;51.072;6.678;2022-08-14T11:38:39;38.50;1.00
3001;DHT22;1510;51.072;6.678;2022-08-14T11:41:07;38.70;1.00
3001;DHT22;1510;51.072;6.678;2022-08-14T11:43:39;39.60;1.00
3001;DHT22;1510;51.072;6.678;2022-08-14T11:46:06;38.80;1.00
3001;DHT22;1510;51.072;6.678;2022-08-14T11:48:45;39.00;1.00
3001;DHT22;1510;51.072;6.678;2022-08-14T11:51:13;38.10;1.00
3001;DHT22;1510;51.072;6.678;2022-08-14T11:53:50;38.50;1.00
3001;DHT22;1510;51.072;6.678;2022-08-14T11:56:17;37.80;1.00
3001;DHT22;1510;51.072;6.678;2022-08-14T11:58:50;37.60;1.00
3001;DHT22;1510;51.072;6.678;2022-08-14T12:01:23;38.20;1.00
3001;DHT22;1510;51.072;6.678;2022-08-14T12:03:53;39.00;1.00
3001;DHT22;1510;51.072;6.678;2022-08-14T12:06:24;39.60;1.00
3001;DHT22;1510;51.072;6.678;2022-08-14T12:08:51;39.60;1.00
3001;DHT22;1510;51.072;6.678;2022-08-14T12:11:19;39.70;1.00
3001;DHT22;1510;51.072;6.678;2022-08-14T12:13:47;39.70;1.00
3001;DHT22;1510;51.072;6.678;2022-08-14T12:16:15;38.80;1.00
3001;DHT22;1510;51.072;6.678;2022-08-14T12:18:44;39.50;1.00
3001;DHT22;1510;51.072;6.678;2022-08-14T12:21:14;39.30;1.00
3001;DHT22;1510;51.072;6.678;2022-08-14T12:23:42;40.00;1.00
3001;DHT22;1510;51.072;6.678;2022-08-14T12:26:13;40.20;1.00
3001;DHT22;1510;51.072;6.678;2022-08-14T12:28:42;40.50;1.00
3001;DHT22;1510;51.072;6.678;2022-08-14T12:31:15;40.70;1.00
3001;DHT22;1510;51.072;6.678;2022-08-14T12:33:43;41.10;1.00
3001;DHT22;1510;51.072;6.678;2022-08-14T12:36:20;39.20;1.00
3001;DHT22;1510;51.072;6.678;2022-08-14T12:38:47;39.60;1.00
3001;DHT22;1510;51.072;6.678;2022-08-14T12:41:16;38.70;1.00
3001;DHT22;1510;51.072;6.678;2022-08-14T12:43:45;38.30;1.00
3001;DHT22;1510;51.072;6.678;2022-08-14T12:46:22;39.00;1.00
3001;DHT22;1510;51.072;6.678;2022-08-14T12:48:49;39.60;1.00
3001;DHT22;1510;51.072;6.678;2022-08-14T12:51:17;40.40;1.00
3001;DHT22;1510;51.072;6.678;2022-08-14T12:53:45;39.60;1.00
3001;DHT22;1510;51.072;6.678;2022-08-14T12:56:16;39.40;1.00
3001;DHT22;1510;51.072;6.678;2022-08-14T12:58:47;40.30;1.00
3001;DHT22;1510;51.072;6.678;2022-08-14T13:01:18;41.30;1.00
3001;DHT22;1510;51.072;6.678;2022-08-14T13:03:47;40.80;1.00
3001;DHT22;1510;51.072;6.678;2022-08-14T13:06:14;40.10;1.00
3001;DHT22;1510;51.072;6.678;2022-08-14T13:08:42;40.20;1.00
3001;DHT22;1510;51.072;6.678;2022-08-14T13:11:11;40.00;1.00
3001;DHT22;1510;51.072;6.678;2022-08-14T13:13:41;40.60;1.00
3001;DHT22;1510;51.072;6.678;2022-08-14T13:16:09;41.10;1.00
3001;DHT22;1510;51.072;6.678;2022-08-14T13:18:40;41.40;1.00
3001;DHT22;1510;51.072;6.678;2022-08-14T13:21:10;41.50;1.00
3001;DHT22;1510;51.072;6.678;2022-08-14T13:23:39;42.00;1.00
3001;DHT22;1510;51.072;6.678;2022-08-14T13:26:07;41.80;1.00
3001;DHT22;1510;51.072;6.678;2022-08-14T13:28:38;42.20;1.00
3001;DHT22;1510;51.072;6.678;2022-08-14T13:31:07;40.50;1.00
3001;DHT22;1510;51.072;6.678;2022-08-14T13:33:35;41.10;1.00
3001;DHT22;1510;51.072;6.678;2022-08-14T13:36:03;42.80;1.00
3001;DHT22;1510;51.072;6.678;2022-08-14T13:38:32;43.30;1.00
3001;DHT22;1510;51.072;6.678;2022-08-14T13:40:59;42.70;1.00
3001;DHT22;1510;51.072;6.678;2022-08-14T13:43:25;42.50;1.00
3001;DHT22;1510;51.072;6.678;2022-08-14T13:45:53;42.90;1.00
3001;DHT22;1510;51.072;6.678;2022-08-14T13:48:21;41.80;1.00
3001;DHT22;1510;51.072;6.678;2022-08-14T13:50:52;41.80;1.00
3001;DHT22;1510;51.072;6.678;2022-08-14T13:53:21;41.50;1.00
3001;DHT22;1510;51.072;6.678;2022-08-14T13:55:50;42.10;1.00
3001;DHT22;1510;51.072;6.678;2022-08-14T13:58:19;40.70;1.00
3001;DHT22;1510;51.072;6.678;2022-08-14T14:00:49;41.30;1.00
3001;DHT22;1510;51.072;6.678;2022-08-14T14:03:17;42.50;1.00
3001;DHT22;1510;51.072;6.678;2022-08-14T14:05:49;40.80;1.00
3001;DHT22;1510;51.072;6.678;2022-08-14T14:08:19;41.60;1.00
3001;DHT22;1510;51.072;6.678;2022-08-14T14:10:47;41.60;1.00
3001;DHT22;1510;51.072;6.678;2022-08-14T14:13:15;41.50;1.00
3001;DHT22;1510;51.072;6.678;2022-08-14T14:15:45;41.40;1.00
3001;DHT22;1510;51.072;6.678;2022-08-14T14:18:13;40.70;1.00
3001;DHT22;1510;51.072;6.678;2022-08-14T14:20:42;41.00;1.00
3001;DHT22;1510;51.072;6.678;2022-08-14T14:23:11;41.10;1.00
3001;DHT22;1510;51.072;6.678;2022-08-14T14:25:42;39.90;1.00
3001;DHT22;1510;51.072;6.678;2022-08-14T14:28:13;38.30;1.00
3001;DHT22;1510;51.072;6.678;2022-08-14T14:30:44;37.60;1.00
3001;DHT22;1510;51.072;6.678;2022-08-14T14:33:12;37.50;1.00
3001;DHT22;1510;51.072;6.678;2022-08-14T14:35:43;37.10;1.00
3001;DHT22;1510;51.072;6.678;2022-08-14T14:38:13;36.60;1.00
3001;DHT22;1510;51.072;6.678;2022-08-14T14:40:42;35.60;1.00
3001;DHT22;1510;51.072;6.678;2022-08-14T14:43:11;35.10;1.00
3001;DHT22;1510;51.072;6.678;2022-08-14T14:45:39;35.10;1.00
3001;DHT22;1510;51.072;6.678;2022-08-14T14:48:09;36.60;1.00
3001;DHT22;1510;51.072;6.678;2022-08-14T14:50:37;37.70;1.00
3001;DHT22;1510;51.072;6.678;2022-08-14T14:53:04;38.70;1.00
3001;DHT22;1510;51.072;6.678;2022-08-14T14:55:31;40.20;1.00
3001;DHT22;1510;51.072;6.678;2022-08-14T14:57:58;41.30;1.00
3001;DHT22;1510;51.072;6.678;2022-08-14T15:00:26;41.50;1.00
3001;DHT22;1510;51.072;6.678;2022-08-14T15:02:53;42.10;1.00
3001;DHT22;1510;51.072;6.678;2022-08-14T15:05:23;42.40;1.00
3001;DHT22;1510;51.072;6.678;2022-08-14T15:07:51;41.40;1.00
3001;DHT22;1510;51.072;6.678;2022-08-14T15:10:19;41.20;1.00
3001;DHT22;1510;51.072;6.678;2022-08-14T15:12:46;41.30;1.00
3001;DHT22;1510;51.072;6.678;2022-08-14T15:15:13;40.90;1.00
3001;DHT22;1510;51.072;6.678;2022-08-14T15:17:40;39.80;1.00
3001;DHT22;1510;51.072;6.678;2022-08-14T15:20:09;39.40;1.00
3001;DHT22;1510;51.072;6.678;2022-08-14T15:22:39;38.90;1.00
3001;DHT22;1510;51.072;6.678;2022-08-14T15:25:08;38.20;1.00
3001;DHT22;1510;51.072;6.678;2022-08-14T15:27:36;37.70;1.00
3001;DHT22;1510;51.072;6.678;2022-08-14T15:30:04;37.90;1.00
3001;DHT22;1510;51.072;6.678;2022-08-14T15:32:31;37.40;1.00
3001;DHT22;1510;51.072;6.678;2022-08-14T15:34:57;36.60;1.00
3001;DHT22;1510;51.072;6.678;2022-08-14T15:37:25;35.90;1.00
3001;DHT22;1510;51.072;6.678;2022-08-14T15:39:53;36.10;1.00
3001;DHT22;1510;51.072;6.678;2022-08-14T15:42:20;36.80;1.00
3001;DHT22;1510;51.072;6.678;2022-08-14T15:44:49;37.30;1.00
3001;DHT22;1510;51.072;6.678;2022-08-14T15:54:02;37.20;1.00
3001;DHT22;1510;51.072;6.678;2022-08-14T15:56:41;36.00;1.00
3001;DHT22;1510;51.072;6.678;2022-08-14T15:59:16;35.90;1.00
3001;DHT22;1510;51.072;6.678;2022-08-14T16:01:43;35.40;1.00
3001;DHT22;1510;51.072;6.678;2022-08-14T16:04:09;35.90;1.00
3001;DHT22;1510;51.072;6.678;2022-08-14T16:06:53;37.00;1.00
3001;DHT22;1510;51.072;6.678;2022-08-14T16:09:30;37.40;1.00
3001;DHT22;1510;51.072;6.678;2022-08-14T16:12:24;38.40;1.00
3001;DHT22;1510;51.072;6.678;2022-08-14T16:15:15;38.40;1.00
3001;DHT22;1510;51.072;6.678;2022-08-14T16:18:26;38.90;1.00
3001;DHT22;1510;51.072;6.678;2022-08-14T16:21:24;39.50;1.00
3001;DHT22;1510;51.072;6.678;2022-08-14T16:24:30;39.70;1.00
3001;DHT22;1510;51.072;6.678;2022-08-14T16:44:14;37.60;1.00
3001;DHT22;1510;51.072;6.678;2022-08-14T16:46:33;36.60;1.00
3001;DHT22;1510;51.072;6.678;2022-08-14T16:49:04;35.90;1.00
3001;DHT22;1510;51.072;6.678;2022-08-14T16:51:32;35.20;1.00